Time;durP1;ratioP1;P1;durP2;ratioP2;P2;SDS_P1;SDS_P2;PMS_P1;PMS_P2;Temp;Humidity;BMP_temperature;BMP_pressure;BME280_temperature;BME280_humidity;BME280_pressure;Samples;Min_cycle;Max_cycle;Signal;HPM_P1;HPM_P2
2021/06/30 00:02:29;;;;;;;3.72;2.67;;;;;;;17.67;84.83;99685.53;10341437;28;20046;-60
2021/06/30 00:07:36;;;;;;;5.43;2.45;;;;;;;17.85;85.90;99698.66;10339739;28;20049;-60
2021/06/30 00:12:42;;;;;;;6.38;3.00;;;;;;;17.77;83.68;99722.13;10326123;28;20054;-63
2021/06/30 00:17:49;;;;;;;3.17;2.65;;;;;;;17.77;85.15;99722.13;10342778;28;20056;-60
2021/06/30 00:22:55;;;;;;;3.15;2.85;;;;;;;17.83;84.39;99714.16;10337553;28;20388;-61
2021/06/30 00:28:02;;;;;;;3.65;2.55;;;;;;;17.74;84.42;99719.78;10344663;28;20042;-60
2021/06/30 00:33:09;;;;;;;4.45;2.90;;;;;;;17.72;84.11;99716.47;10342870;28;20076;-60
2021/06/30 00:38:16;;;;;;;6.65;2.40;;;;;;;17.65;84.69;99714.50;10345457;28;20403;-60
2021/06/30 00:43:22;;;;;;;5.45;2.83;;;;;;;17.55;84.16;99713.94;10345103;28;20052;-60
2021/06/30 00:48:29;;;;;;;3.63;2.85;;;;;;;17.46;85.15;99715.03;10344353;28;20651;-60
2021/06/30 00:53:35;;;;;;;5.47;2.65;;;;;;;17.53;85.70;99707.03;10339966;28;20153;-60
2021/06/30 00:58:42;;;;;;;4.05;2.80;;;;;;;17.47;85.88;99708.59;10321958;28;20751;-59
2021/06/30 01:03:49;;;;;;;5.90;2.72;;;;;;;17.52;85.65;99708.91;10341950;28;20041;-59
2021/06/30 01:08:56;;;;;;;6.10;2.60;;;;;;;17.56;84.63;99704.00;10337240;28;20125;-60
2021/06/30 01:14:02;;;;;;;3.65;2.13;;;;;;;17.58;87.45;99689.34;10323256;28;20057;-60
2021/06/30 01:19:09;;;;;;;5.65;1.95;;;;;;;17.62;84.94;99687.09;10343978;28;20129;-60
2021/06/30 01:24:17;;;;;;;5.07;2.42;;;;;;;17.62;86.67;99682.56;10322158;28;20679;-61
2021/06/30 01:29:23;;;;;;;3.97;2.22;;;;;;;17.59;85.58;99687.47;10341476;28;20045;-61
2021/06/30 01:34:30;;;;;;;4.22;2.20;;;;;;;17.60;83.59;99689.97;10337178;28;20050;-60
2021/06/30 01:39:36;;;;;;;4.68;2.22;;;;;;;17.66;86.00;99689.25;10343209;28;20076;-61
2021/06/30 01:44:43;;;;;;;6.28;2.60;;;;;;;17.71;85.50;99690.56;10336818;28;20091;-60
2021/06/30 01:49:49;;;;;;;6.40;3.08;;;;;;;17.74;83.46;99700.94;10326100;28;20046;-60
2021/06/30 01:54:56;;;;;;;6.03;2.35;;;;;;;17.60;84.80;99695.38;10332788;28;20048;-61
2021/06/30 02:00:04;;;;;;;3.50;2.47;;;;;;;17.62;83.57;99708.63;10340237;28;20049;-60
2021/06/30 02:05:13;;;;;;;5.65;2.60;;;;;;;17.26;84.23;99699.38;10340150;28;20600;-60
2021/06/30 02:10:22;;;;;;;4.35;2.50;;;;;;;17.40;85.13;99700.44;10342165;28;20046;-60
2021/06/30 02:15:31;;;;;;;11.10;3.08;;;;;;;17.26;84.69;99687.75;10346643;28;20042;-61
2021/06/30 02:20:37;;;;;;;3.65;3.15;;;;;;;17.36;86.05;99682.16;10324065;28;20054;-61
2021/06/30 02:25:44;;;;;;;4.15;2.97;;;;;;;17.40;85.46;99686.13;10348208;28;20100;-60
2021/06/30 02:30:51;;;;;;;3.85;2.55;;;;;;;17.28;85.36;99686.56;10331738;28;20064;-60
2021/06/30 02:35:57;;;;;;;10.18;3.47;;;;;;;17.46;86.07;99690.81;10345421;28;20053;-61
2021/06/30 02:41:03;;;;;;;4.68;2.83;;;;;;;17.56;85.45;99687.84;10348255;28;20044;-61
2021/06/30 02:46:10;;;;;;;3.67;2.42;;;;;;;17.56;85.73;99682.47;10348740;28;20158;-61
2021/06/30 02:51:16;;;;;;;5.28;2.60;;;;;;;17.61;85.05;99697.03;10358551;28;20057;-62
2021/06/30 02:56:23;;;;;;;3.05;2.50;;;;;;;17.46;83.62;99702.41;10333718;28;20046;-60
2021/06/30 03:01:30;;;;;;;6.38;3.25;;;;;;;17.32;84.35;99703.19;10330475;28;20053;-61
2021/06/30 03:06:36;;;;;;;3.83;3.08;;;;;;;17.15;84.47;99705.16;10353941;28;20058;-60
2021/06/30 03:11:42;;;;;;;4.55;2.42;;;;;;;17.06;84.29;99714.31;10349276;28;20403;-61
2021/06/30 03:16:49;;;;;;;3.75;2.70;;;;;;;17.01;85.00;99716.69;10347939;28;20050;-61
2021/06/30 03:21:55;;;;;;;4.80;2.40;;;;;;;17.08;85.03;99720.34;10343977;28;20395;-61
2021/06/30 03:27:02;;;;;;;6.25;2.20;;;;;;;17.12;84.85;99727.88;10338418;28;20042;-61
2021/06/30 03:32:09;;;;;;;4.25;2.50;;;;;;;17.21;83.38;99723.28;10346738;28;20666;-61
2021/06/30 03:37:15;;;;;;;3.40;2.05;;;;;;;17.04;85.03;99717.19;10349680;28;20643;-61
2021/06/30 03:42:22;;;;;;;6.20;3.35;;;;;;;17.13;82.67;99708.03;10342321;28;20053;-61
2021/06/30 03:47:28;;;;;;;7.13;2.88;;;;;;;17.05;83.83;99723.38;10330832;28;20048;-61
2021/06/30 03:52:35;;;;;;;3.00;2.10;;;;;;;16.87;83.75;99720.97;10345162;28;20050;-60
2021/06/30 03:57:41;;;;;;;4.57;2.10;;;;;;;16.90;82.78;99723.31;10343754;28;20050;-62
2021/06/30 04:02:48;;;;;;;4.55;2.38;;;;;;;16.88;82.21;99726.19;10315025;28;20052;-60
2021/06/30 04:07:54;;;;;;;3.28;2.10;;;;;;;16.87;83.52;99721.81;10317537;28;20046;-61
2021/06/30 04:12:56;;;;;;;6.18;2.72;;;;;;;16.94;82.84;99717.41;10301025;28;20061;-60
2021/06/30 04:18:05;;;;;;;4.20;2.15;;;;;;;17.01;83.70;99724.75;10285137;28;20046;-60
2021/06/30 04:23:12;;;;;;;3.78;2.55;;;;;;;16.84;82.28;99726.69;10305548;28;20054;-61
2021/06/30 04:28:18;;;;;;;3.92;2.88;;;;;;;16.79;82.07;99725.34;10303751;28;20041;-60
2021/06/30 04:33:25;;;;;;;3.70;2.10;;;;;;;16.69;82.87;99719.38;10302441;28;20042;-61
2021/06/30 04:38:31;;;;;;;5.30;1.95;;;;;;;16.93;83.45;99729.19;10304376;28;20604;-60
2021/06/30 04:43:39;;;;;;;4.82;2.42;;;;;;;16.87;80.25;99729.88;10301722;28;20429;-60
2021/06/30 04:48:46;;;;;;;3.85;2.35;;;;;;;16.68;80.57;99715.03;10300612;28;20483;-60
2021/06/30 04:53:53;;;;;;;3.42;2.10;;;;;;;16.73;80.93;99723.38;10301482;28;20052;-61
2021/06/30 04:58:59;;;;;;;4.60;2.20;;;;;;;16.75;78.85;99720.50;10279107;28;20887;-60
2021/06/30 05:04:06;;;;;;;8.25;2.10;;;;;;;16.83;80.44;99725.84;10301119;28;20080;-61
2021/06/30 05:09:13;;;;;;;3.63;1.95;;;;;;;16.85;78.73;99718.44;10306192;28;20045;-61
2021/06/30 05:14:20;;;;;;;6.10;2.55;;;;;;;16.96;77.93;99722.59;10303052;28;20056;-61
2021/06/30 05:19:26;;;;;;;4.35;2.60;;;;;;;17.06;78.90;99738.50;10299949;28;20051;-61
2021/06/30 05:24:33;;;;;;;4.63;2.22;;;;;;;17.04;77.59;99735.16;10298195;28;20564;-61
2021/06/30 05:29:40;;;;;;;7.10;2.30;;;;;;;17.21;77.66;99736.72;10300023;28;20101;-61
2021/06/30 05:34:46;;;;;;;3.25;2.08;;;;;;;17.28;76.11;99729.59;10305362;28;20046;-61
2021/06/30 05:39:53;;;;;;;4.50;2.13;;;;;;;17.42;76.23;99729.84;10310947;28;20050;-60
2021/06/30 05:44:59;;;;;;;6.32;1.83;;;;;;;17.49;76.21;99728.09;10319496;28;20053;-61
2021/06/30 05:50:06;;;;;;;8.00;2.63;;;;;;;17.54;75.87;99731.06;10301918;28;20042;-61
2021/06/30 05:55:13;;;;;;;8.65;3.33;;;;;;;17.47;75.94;99736.38;10317290;28;20046;-62
2021/06/30 06:00:21;;;;;;;5.53;2.15;;;;;;;17.62;75.80;99739.06;10317913;28;20046;-61
2021/06/30 06:05:27;;;;;;;3.63;2.63;;;;;;;17.69;74.70;99746.44;10319271;28;20411;-61
2021/06/30 06:10:34;;;;;;;3.92;2.25;;;;;;;17.67;74.79;99733.16;10318129;28;20050;-62
2021/06/30 06:15:40;;;;;;;5.93;2.92;;;;;;;17.72;74.70;99736.13;10319039;28;20066;-61
2021/06/30 06:20:47;;;;;;;6.15;2.20;;;;;;;17.67;75.27;99738.53;10316024;28;20562;-61
2021/06/30 06:25:53;;;;;;;4.25;2.80;;;;;;;17.74;74.92;99750.22;10318475;28;20051;-64
2021/06/30 06:31:01;;;;;;;4.30;2.28;;;;;;;17.75;74.36;99743.84;10316156;28;20054;-61
2021/06/30 06:36:09;;;;;;;5.63;2.80;;;;;;;17.85;72.84;99747.09;10318823;28;20418;-60
2021/06/30 06:41:15;;;;;;;5.25;3.00;;;;;;;18.02;71.65;99758.56;10313055;28;20046;-61
2021/06/30 06:46:22;;;;;;;5.18;3.83;;;;;;;18.19;70.63;99755.72;10312604;28;20054;-61
2021/06/30 06:51:28;;;;;;;4.88;3.33;;;;;;;18.31;71.00;99751.53;10308251;28;20042;-60
2021/06/30 06:56:36;;;;;;;6.97;3.45;;;;;;;18.46;70.12;99753.38;10312652;28;20042;-61
2021/06/30 07:01:37;;;;;;;4.55;2.70;;;;;;;18.68;70.34;99751.59;10317916;28;20496;-61
2021/06/30 07:06:38;;;;;;;3.92;3.13;;;;;;;19.00;68.08;99742.22;10308544;28;20053;-60
2021/06/30 07:11:45;;;;;;;4.28;2.50;;;;;;;18.77;67.78;99736.16;10303317;28;20058;-62
2021/06/30 07:16:52;;;;;;;4.93;2.53;;;;;;;18.95;67.63;99728.50;10312720;28;20408;-61
2021/06/30 07:21:58;;;;;;;5.40;2.28;;;;;;;19.01;66.50;99732.31;10304639;28;20068;-61
2021/06/30 07:27:05;;;;;;;2.72;1.40;;;;;;;19.24;65.20;99751.00;10313771;28;20050;-59
2021/06/30 07:32:11;;;;;;;2.15;1.80;;;;;;;19.18;63.02;99736.41;10316150;28;20048;-61
2021/06/30 07:37:18;;;;;;;4.13;2.28;;;;;;;19.23;63.39;99742.06;10310000;28;20423;-61
2021/06/30 07:42:19;;;;;;;4.07;2.85;;;;;;;19.37;63.52;99739.50;10308955;28;20054;-60
2021/06/30 07:47:26;;;;;;;2.58;1.90;;;;;;;19.50;62.91;99738.75;10308397;28;20434;-60
2021/06/30 07:52:27;;;;;;;4.25;1.58;;;;;;;19.62;62.29;99726.41;10312030;28;20062;-60
2021/06/30 07:57:29;;;;;;;3.17;2.10;;;;;;;19.85;62.36;99728.09;10310996;28;20042;-59
2021/06/30 08:02:33;;;;;;;8.07;2.63;;;;;;;19.84;62.67;99734.50;10308861;28;20380;-61
2021/06/30 08:07:35;;;;;;;4.38;2.80;;;;;;;19.91;61.96;99736.22;10310291;28;20278;-61
2021/06/30 08:12:37;;;;;;;2.65;2.40;;;;;;;19.87;60.81;99745.75;10307951;28;20058;-61
2021/06/30 08:17:39;;;;;;;2.92;2.13;;;;;;;20.02;60.36;99748.34;10295865;28;21058;-61
2021/06/30 08:22:41;;;;;;;3.90;1.98;;;;;;;19.93;60.93;99744.13;10304324;28;20061;-61
2021/06/30 08:27:44;;;;;;;;;;;;;;;20.00;60.03;99750.41;10306891;28;20566;-61
2021/06/30 08:32:47;;;;;;;20.27;3.05;;;;;;;20.13;60.27;99745.09;10290116;28;20462;-61
2021/06/30 08:37:48;;;;;;;7.00;3.15;;;;;;;20.20;59.72;99755.13;10306582;28;20728;-60
2021/06/30 08:42:50;;;;;;;4.43;2.38;;;;;;;19.97;60.63;99745.41;10305556;28;21170;-61
2021/06/30 08:47:55;;;;;;;5.47;2.97;;;;;;;19.96;60.71;99744.56;10304960;28;20058;-60
2021/06/30 08:52:58;;;;;;;3.63;2.47;;;;;;;19.93;60.73;99749.53;10304938;28;20522;-60
2021/06/30 08:58:08;;;;;;;20.08;4.18;;;;;;;19.75;59.85;99753.50;10308222;28;20077;-60
2021/06/30 09:03:18;;;;;;;4.25;2.10;;;;;;;19.65;60.45;99747.63;10308294;28;22155;-60
2021/06/30 09:08:43;;;;;;;4.47;3.67;;;;;;;19.59;62.82;99743.00;10305615;28;20061;-60
2021/06/30 09:13:45;;;;;;;4.55;3.90;;;;;;;19.80;62.99;99744.03;10304433;28;20503;-61
2021/06/30 09:18:49;;;;;;;4.80;3.30;;;;;;;19.69;62.57;99754.28;10289619;28;20048;-61
2021/06/30 09:24:06;;;;;;;2.90;2.70;;;;;;;19.45;62.14;99754.72;10303940;28;20672;-61
2021/06/30 09:29:11;;;;;;;11.77;3.97;;;;;;;19.93;61.02;99749.53;10301847;28;20053;-60
2021/06/30 09:34:18;;;;;;;3.72;2.35;;;;;;;20.07;60.24;99745.03;10299974;28;20042;-61
2021/06/30 09:39:21;;;;;;;3.13;2.00;;;;;;;20.17;59.86;99744.69;10303771;28;20054;-60
2021/06/30 09:44:22;;;;;;;4.47;1.60;;;;;;;20.60;57.01;99750.75;10306352;28;20055;-61
2021/06/30 09:49:26;;;;;;;2.92;1.67;;;;;;;20.90;55.57;99755.06;10310399;28;20069;-61
2021/06/30 09:54:31;;;;;;;2.60;1.20;;;;;;;21.25;56.79;99752.22;10302408;28;20053;-61
2021/06/30 09:59:38;;;;;;;4.30;0.90;;;;;;;21.59;53.43;99753.09;10303096;28;20054;-61
2021/06/30 10:04:41;;;;;;;1.95;0.70;;;;;;;21.43;54.17;99763.28;10307367;28;20524;-61
2021/06/30 10:09:52;;;;;;;2.80;0.80;;;;;;;21.31;53.96;99762.22;10307313;28;20062;-61
2021/06/30 10:14:55;;;;;;;1.30;0.70;;;;;;;21.01;54.09;99752.56;10306928;28;20046;-61
2021/06/30 10:19:58;;;;;;;2.60;0.60;;;;;;;21.25;53.62;99753.03;10294725;28;20061;-61
2021/06/30 10:25:00;;;;;;;;;;;;;;;21.39;52.21;99759.31;10316850;28;20061;-60
2021/06/30 10:30:02;;;;;;;0.95;0.65;;;;;;;21.34;52.21;99751.81;10312284;28;19925;-60
2021/06/30 10:35:16;;;;;;;1.80;0.90;;;;;;;21.35;52.15;99748.06;10312673;28;20463;-60
2021/06/30 10:40:17;;;;;;;;;;;;;;;21.41;53.45;99754.53;10313271;28;20049;-60
2021/06/30 10:45:24;;;;;;;2.35;0.60;;;;;;;21.88;51.53;99755.38;10308458;28;19926;-60
2021/06/30 10:50:33;;;;;;;0.68;0.55;;;;;;;22.41;50.05;99748.22;10317443;28;20848;-60
2021/06/30 10:55:39;;;;;;;2.78;0.80;;;;;;;22.85;48.02;99752.03;10313814;28;20454;-61
2021/06/30 11:00:51;;;;;;;34.53;4.10;;;;;;;22.60;48.91;99732.94;10317364;28;20057;-60
2021/06/30 11:05:55;;;;;;;2.20;1.15;;;;;;;22.78;48.68;99730.34;10316665;28;20057;-61
2021/06/30 11:10:57;;;;;;;45.03;6.68;;;;;;;22.82;49.00;99740.75;10297031;28;20053;-61
2021/06/30 11:15:58;;;;;;;2.90;0.60;;;;;;;23.02;46.84;99740.66;10313944;28;20058;-61
2021/06/30 11:21:44;;;;;;;1.40;0.47;;;;;;;22.80;46.85;99737.44;10312796;28;20093;-61
2021/06/30 11:26:45;;;;;;;1.15;0.57;;;;;;;22.77;49.02;99744.13;10313438;28;20411;-62
2021/06/30 11:31:47;;;;;;;2.05;0.80;;;;;;;22.27;49.33;99743.88;10294612;28;20053;-61
2021/06/30 11:36:49;;;;;;;1.75;0.95;;;;;;;22.05;49.77;99735.97;10312646;28;20675;-61
2021/06/30 11:41:52;;;;;;;3.22;0.80;;;;;;;22.14;50.01;99734.72;10312445;28;20042;-61
2021/06/30 11:47:02;;;;;;;1.63;1.13;;;;;;;22.73;48.27;99737.47;10311413;28;20136;-60
2021/06/30 11:52:04;;;;;;;3.13;1.27;;;;;;;22.85;47.98;99734.91;10313807;28;20054;-62
2021/06/30 11:57:07;;;;;;;1.17;1.07;;;;;;;22.16;46.32;99729.94;10314343;28;20498;-61
2021/06/30 12:02:08;;;;;;;3.60;1.43;;;;;;;21.86;46.70;99733.09;10304749;28;20054;-61
2021/06/30 12:07:10;;;;;;;4.47;2.70;;;;;;;21.60;47.46;99722.28;10287472;28;20387;-61
2021/06/30 12:12:12;;;;;;;3.38;2.03;;;;;;;21.60;48.29;99725.00;10305779;28;20050;-61
2021/06/30 12:17:16;;;;;;;2.58;1.67;;;;;;;21.81;48.05;99719.38;10310590;28;20042;-61
2021/06/30 12:22:22;;;;;;;2.10;1.35;;;;;;;22.01;48.11;99721.22;10289247;28;20060;-61
2021/06/30 12:27:27;;;;;;;8.07;1.38;;;;;;;22.14;48.13;99723.88;10309347;28;20054;-61
2021/06/30 12:32:30;;;;;;;19.58;2.15;;;;;;;22.30;48.23;99727.19;10296481;28;20648;-62
2021/06/30 12:37:33;;;;;;;27.48;3.03;;;;;;;22.91;46.57;99712.34;10308016;28;20061;-62
2021/06/30 12:42:44;;;;;;;;;;;;;;;23.48;45.72;99693.38;10303567;28;20054;-61
2021/06/30 12:47:58;;;;;;;2.67;1.60;;;;;;;23.50;46.03;99704.03;10312101;28;19963;-62
2021/06/30 12:53:09;;;;;;;3.67;1.60;;;;;;;22.52;51.06;99719.59;10306354;28;20069;-62
2021/06/30 12:58:10;;;;;;;2.80;1.20;;;;;;;21.98;53.95;99710.75;10307007;28;20689;-62
2021/06/30 13:03:17;;;;;;;3.25;0.98;;;;;;;21.99;53.90;99717.88;10304164;28;20076;-61
2021/06/30 13:08:43;;;;;;;4.05;1.42;;;;;;;21.79;54.47;99718.72;10302036;28;20054;-61
2021/06/30 13:13:57;;;;;;;1.30;0.70;;;;;;;21.89;54.13;99721.03;10313349;28;22103;-62
2021/06/30 13:19:01;;;;;;;2.20;0.82;;;;;;;22.26;53.24;99702.38;10308831;28;20050;-63
2021/06/30 13:24:16;;;;;;;0.98;0.70;;;;;;;22.41;53.56;99707.56;10307157;28;20496;-61
2021/06/30 13:34:35;;;;;;;1.90;0.70;;;;;;;22.41;52.15;99712.97;10303179;28;20042;-61
2021/06/30 13:39:37;;;;;;;3.08;0.90;;;;;;;22.10;51.86;99711.81;10306916;28;20054;-61
2021/06/30 13:44:38;;;;;;;2.42;0.70;;;;;;;21.95;51.62;99703.06;10304013;28;20054;-62
2021/06/30 13:49:40;;;;;;;1.58;0.70;;;;;;;22.01;52.81;99702.25;10305770;28;20050;-60
2021/06/30 13:54:41;;;;;;;2.25;1.05;;;;;;;21.84;52.96;99691.84;10297948;28;20061;-61
2021/06/30 13:59:43;;;;;;;2.40;1.50;;;;;;;21.86;53.96;99697.88;10317026;28;20046;-61
2021/06/30 14:04:44;;;;;;;3.65;0.80;;;;;;;21.48;54.82;99685.00;10300778;28;20054;-61
2021/06/30 14:09:46;;;;;;;1.30;1.00;;;;;;;21.37;55.52;99680.19;10313881;28;20057;-61
2021/06/30 14:14:49;;;;;;;2.05;1.00;;;;;;;21.26;55.01;99688.91;10300682;28;20177;-59
2021/06/30 14:19:51;;;;;;;2.05;0.70;;;;;;;21.22;55.24;99676.84;10299530;28;20058;-61
2021/06/30 14:24:54;;;;;;;1.83;0.80;;;;;;;21.34;55.22;99669.78;10319579;28;20054;-59
2021/06/30 14:29:59;;;;;;;2.03;0.90;;;;;;;21.62;53.93;99663.31;10298876;28;20053;-62
2021/06/30 14:35:02;;;;;;;1.67;1.00;;;;;;;22.18;52.66;99670.09;10313209;28;20519;-61
2021/06/30 14:40:04;;;;;;;0.90;0.70;;;;;;;22.36;52.46;99675.66;10312203;28;20399;-61
2021/06/30 14:45:07;;;;;;;1.00;0.70;;;;;;;22.37;52.57;99680.06;10316301;28;20062;-61
2021/06/30 14:50:12;;;;;;;3.47;1.20;;;;;;;22.44;51.24;99677.28;10293291;28;20309;-61
2021/06/30 14:55:14;;;;;;;3.78;0.93;;;;;;;22.54;50.71;99680.38;10313688;28;20050;-61
2021/06/30 15:00:18;;;;;;;0.98;0.73;;;;;;;22.24;51.18;99682.78;10316903;28;20062;-56
2021/06/30 15:05:20;;;;;;;2.10;0.80;;;;;;;22.00;51.97;99674.28;10297780;28;20049;-56
2021/06/30 15:10:22;;;;;;;2.50;0.75;;;;;;;21.66;54.07;99672.69;10316110;28;20080;-57
2021/06/30 15:15:24;;;;;;;0.65;0.50;;;;;;;21.64;53.96;99667.50;10309335;28;20061;-55
2021/06/30 15:20:25;;;;;;;2.33;0.70;;;;;;;21.86;53.49;99665.38;10307424;28;20050;-55
2021/06/30 15:25:27;;;;;;;3.53;1.15;;;;;;;21.86;52.47;99675.38;10304353;28;20057;-58
2021/06/30 15:30:28;;;;;;;1.38;0.85;;;;;;;21.71;50.45;99676.44;10307238;28;20038;-55
2021/06/30 15:35:30;;;;;;;1.45;1.02;;;;;;;21.48;52.19;99670.59;10304351;28;20057;-55
2021/06/30 15:40:32;;;;;;;1.80;0.98;;;;;;;21.43;52.15;99665.81;10312797;28;20058;-57
2021/06/30 15:45:34;;;;;;;1.95;1.30;;;;;;;21.40;52.72;99668.13;10309065;28;20061;-58
2021/06/30 15:50:36;;;;;;;2.00;1.25;;;;;;;21.31;53.86;99662.06;10289174;28;20050;-58
2021/06/30 15:55:39;;;;;;;1.83;1.50;;;;;;;21.30;53.58;99674.78;10311487;28;20080;-56
2021/06/30 16:00:41;;;;;;;1.08;0.98;;;;;;;21.23;53.07;99670.38;10312169;28;20046;-57
2021/06/30 16:05:42;;;;;;;2.25;1.13;;;;;;;21.18;54.20;99665.59;10318027;28;20057;-57
2021/06/30 16:10:44;;;;;;;1.80;1.23;;;;;;;21.27;54.17;99652.69;10316715;28;20038;-58
2021/06/30 16:15:45;;;;;;;2.35;1.40;;;;;;;21.33;54.05;99662.69;10316323;28;20054;-57
2021/06/30 16:21:08;;;;;;;2.85;1.25;;;;;;;21.26;54.44;99665.41;10314343;28;20504;-58
2021/06/30 16:26:10;;;;;;;1.73;1.10;;;;;;;21.21;54.62;99669.78;10312202;28;20049;-57
2021/06/30 16:31:14;;;;;;;1.33;0.90;;;;;;;21.26;54.66;99667.25;10308763;28;20054;-58
2021/06/30 16:36:16;;;;;;;2.28;0.90;;;;;;;21.23;55.06;99673.09;10312350;28;20050;-58
2021/06/30 16:41:18;;;;;;;2.85;0.90;;;;;;;21.12;54.53;99670.00;10291710;28;20069;-57
2021/06/30 16:46:19;;;;;;;1.95;1.10;;;;;;;21.02;54.82;99669.56;10313594;28;20069;-58
2021/06/30 16:51:21;;;;;;;0.75;0.68;;;;;;;20.85;54.98;99669.09;10305162;28;20070;-55
2021/06/30 16:56:30;;;;;;;1.45;0.75;;;;;;;20.77;55.40;99664.72;10316286;28;20046;-57
2021/06/30 17:01:32;;;;;;;1.77;0.80;;;;;;;20.70;55.31;99663.03;10311023;28;20042;-57
2021/06/30 17:06:35;;;;;;;2.78;0.60;;;;;;;20.73;55.44;99668.03;10309514;28;20833;-58
2021/06/30 17:11:39;;;;;;;0.82;0.50;;;;;;;20.60;56.49;99666.94;10305324;28;20518;-57
2021/06/30 17:16:40;;;;;;;;;;;;;;;20.69;56.84;99673.03;10313634;28;20108;-57
2021/06/30 17:21:42;;;;;;;2.10;0.93;;;;;;;20.61;57.38;99675.88;10312963;28;20022;-57
2021/06/30 17:26:43;;;;;;;1.30;0.70;;;;;;;20.40;58.77;99683.09;10293361;28;20061;-58
2021/06/30 17:31:45;;;;;;;0.90;0.60;;;;;;;20.36;59.44;99686.41;10315973;28;20046;-57
2021/06/30 17:36:47;;;;;;;1.15;0.60;;;;;;;20.44;60.69;99697.84;10309414;28;20470;-57
2021/06/30 17:41:48;;;;;;;1.45;0.63;;;;;;;19.92;63.29;99699.22;10315177;28;20057;-60
2021/06/30 17:46:50;;;;;;;1.63;0.57;;;;;;;19.87;65.28;99707.94;10313897;28;20045;-61
2021/06/30 17:51:52;;;;;;;1.35;0.90;;;;;;;19.67;65.77;99713.16;10309620;28;20049;-60
2021/06/30 17:56:54;;;;;;;2.03;0.85;;;;;;;19.14;69.47;99723.50;10292025;28;20065;-60
2021/06/30 18:01:57;;;;;;;1.90;0.73;;;;;;;19.10;70.78;99727.63;10319451;28;20038;-61
2021/06/30 18:06:58;;;;;;;2.65;1.08;;;;;;;18.78;74.13;99730.56;10314877;28;20365;-60
2021/06/30 18:12:00;;;;;;;3.58;1.38;;;;;;;19.01;75.31;99752.00;10312428;28;20800;-60
2021/06/30 18:17:02;;;;;;;2.05;1.10;;;;;;;19.21;74.37;99752.19;10314144;28;20050;-60
2021/06/30 18:22:04;;;;;;;2.67;0.75;;;;;;;18.98;74.35;99760.47;10308427;28;20053;-63
2021/06/30 18:27:06;;;;;;;2.28;0.68;;;;;;;19.19;74.79;99764.22;10292894;28;20467;-59
2021/06/30 18:32:09;;;;;;;0.73;0.50;;;;;;;19.29;74.62;99759.34;10291579;28;20052;-60
2021/06/30 18:37:11;;;;;;;1.98;1.00;;;;;;;19.35;75.46;99774.78;10308114;28;20061;-60
2021/06/30 18:42:13;;;;;;;3.67;1.20;;;;;;;19.42;75.22;99769.44;10308407;28;20050;-60
2021/06/30 18:47:15;;;;;;;1.73;0.88;;;;;;;19.25;75.65;99766.16;10311885;28;20054;-62
2021/06/30 18:52:16;;;;;;;1.20;0.95;;;;;;;19.33;75.95;99771.41;10308888;28;20050;-61
2021/06/30 18:57:19;;;;;;;1.67;0.95;;;;;;;19.36;75.25;99784.53;10314419;28;20677;-59
2021/06/30 19:02:21;;;;;;;1.48;0.70;;;;;;;19.40;75.69;99796.63;10313135;28;20415;-59
2021/06/30 19:07:23;;;;;;;1.92;0.93;;;;;;;19.37;75.66;99804.25;10314075;28;20042;-59
2021/06/30 19:12:24;;;;;;;1.40;0.80;;;;;;;19.33;75.03;99801.09;10310838;28;20704;-59
2021/06/30 19:17:26;;;;;;;0.98;0.80;;;;;;;19.30;76.02;99811.44;10299422;28;20050;-61
2021/06/30 19:22:27;;;;;;;1.50;1.00;;;;;;;19.30;76.32;99820.38;10311795;28;20077;-60
2021/06/30 19:27:29;;;;;;;1.92;1.13;;;;;;;19.28;76.94;99827.84;10304620;28;20131;-60
2021/06/30 19:32:31;;;;;;;2.35;1.38;;;;;;;19.28;76.62;99833.22;10309312;28;20050;-59
2021/06/30 19:37:33;;;;;;;2.97;1.20;;;;;;;19.27;77.36;99831.56;10310640;28;20068;-59
2021/06/30 19:42:35;;;;;;;2.70;1.90;;;;;;;19.22;76.62;99839.38;10311030;28;20053;-61
2021/06/30 19:47:39;;;;;;;3.53;1.40;;;;;;;19.13;76.94;99841.34;10306723;28;20060;-61
2021/06/30 19:52:45;;;;;;;4.10;1.67;;;;;;;19.06;77.02;99843.13;10311235;28;20121;-61
2021/06/30 19:57:49;;;;;;;5.03;1.75;;;;;;;19.06;77.79;99845.84;10308242;28;20448;-61
2021/06/30 20:02:50;;;;;;;3.72;2.17;;;;;;;19.00;78.54;99850.13;10306076;28;20053;-60
2021/06/30 20:07:53;;;;;;;3.40;2.42;;;;;;;18.94;78.56;99856.25;10305021;28;20578;-63
2021/06/30 20:12:58;;;;;;;3.80;2.85;;;;;;;18.91;79.36;99859.34;10310097;28;20414;-60
2021/06/30 20:18:00;;;;;;;2.67;2.47;;;;;;;18.83;79.83;99859.41;10308146;28;20415;-61
2021/06/30 20:23:02;;;;;;;2.85;2.63;;;;;;;18.53;79.58;99862.13;10310885;28;20618;-58
2021/06/30 20:28:03;;;;;;;3.30;2.47;;;;;;;18.72;80.34;99850.78;10305538;28;20053;-58
2021/06/30 20:33:05;;;;;;;3.63;2.63;;;;;;;18.26;79.99;99856.31;10294103;28;20081;-59
2021/06/30 20:38:07;;;;;;;4.75;2.72;;;;;;;18.36;81.93;99859.59;10309588;28;24703;-58
2021/06/30 20:43:08;;;;;;;5.53;2.90;;;;;;;18.64;79.67;99861.63;10305989;28;20049;-58
2021/06/30 20:48:10;;;;;;;2.42;1.95;;;;;;;18.40;79.37;99870.00;10279539;28;20057;-58
2021/06/30 20:53:11;;;;;;;3.47;2.90;;;;;;;18.11;81.84;99868.94;10307919;28;20060;-58
2021/06/30 20:58:13;;;;;;;6.20;4.35;;;;;;;18.39;82.88;99869.16;10313060;28;20587;-58
2021/06/30 21:03:14;;;;;;;5.78;3.35;;;;;;;18.57;82.89;99870.66;10310574;28;20068;-57
2021/06/30 21:08:16;;;;;;;6.30;3.83;;;;;;;18.64;82.70;99885.06;10306900;28;20495;-58
2021/06/30 21:13:17;;;;;;;5.20;3.20;;;;;;;18.70;82.09;99879.75;10309583;28;20507;-62
2021/06/30 21:18:19;;;;;;;5.22;3.08;;;;;;;18.65;80.60;99884.88;10308021;28;20427;-58
2021/06/30 21:23:22;;;;;;;2.60;2.30;;;;;;;18.61;81.24;99880.06;10297355;28;20427;-60
2021/06/30 21:28:24;;;;;;;4.53;3.47;;;;;;;18.62;82.28;99881.72;10309582;28;20053;-60
2021/06/30 21:33:26;;;;;;;4.22;3.03;;;;;;;18.54;82.94;99888.06;10327634;28;20056;-59
2021/06/30 21:38:28;;;;;;;4.70;3.10;;;;;;;18.50;82.78;99886.75;10343647;28;20454;-59
2021/06/30 21:43:29;;;;;;;4.10;2.72;;;;;;;18.36;82.22;99881.16;10342086;28;20042;-60
2021/06/30 21:48:31;;;;;;;7.15;3.97;;;;;;;18.34;84.33;99891.25;10349892;28;20038;-60
2021/06/30 21:53:32;;;;;;;3.75;3.45;;;;;;;18.31;82.67;99885.41;10361052;28;20057;-60
2021/06/30 21:58:34;;;;;;;4.70;3.42;;;;;;;18.28;84.14;99881.22;10354483;28;20133;-59
2021/06/30 22:03:35;;;;;;;4.18;3.13;;;;;;;18.08;83.34;99888.97;10358200;28;20057;-59
2021/06/30 22:08:37;;;;;;;7.45;3.80;;;;;;;18.12;84.13;99889.44;10351915;28;20077;-59
2021/06/30 22:13:41;;;;;;;4.05;3.67;;;;;;;18.07;82.00;99894.53;10365782;28;20057;-60
2021/06/30 22:18:43;;;;;;;5.90;4.35;;;;;;;18.12;84.22;99894.81;10349798;28;20048;-60
2021/06/30 22:23:45;;;;;;;5.30;4.80;;;;;;;18.11;83.74;99896.69;10349142;28;20060;-60
2021/06/30 22:28:46;;;;;;;5.53;4.97;;;;;;;18.14;84.39;99890.94;10358388;28;20045;-60
2021/06/30 22:33:48;;;;;;;6.30;5.70;;;;;;;18.17;85.00;99889.75;10359111;28;20384;-59
2021/06/30 22:38:49;;;;;;;6.03;5.53;;;;;;;18.16;83.57;99886.19;10344703;28;20049;-60
2021/06/30 22:43:51;;;;;;;7.05;6.35;;;;;;;18.20;84.58;99889.38;10360382;28;20054;-62
2021/06/30 22:48:52;;;;;;;6.93;6.25;;;;;;;18.15;84.43;99878.28;10355511;28;20048;-60
2021/06/30 22:53:54;;;;;;;7.63;6.93;;;;;;;18.11;84.44;99875.13;10326412;28;20046;-61
2021/06/30 22:58:55;;;;;;;6.88;6.28;;;;;;;18.09;82.79;99873.63;10335394;28;20050;-60
2021/06/30 23:03:57;;;;;;;7.75;7.05;;;;;;;18.11;85.33;99885.91;10351344;28;20072;-60
2021/06/30 23:08:58;;;;;;;6.65;6.05;;;;;;;18.10;84.06;99875.31;10357859;28;20057;-60
2021/06/30 23:14:00;;;;;;;6.57;5.97;;;;;;;18.03;84.21;99872.53;10361237;28;20046;-60
2021/06/30 23:19:02;;;;;;;6.40;5.80;;;;;;;17.96;84.51;99874.28;10356137;28;20054;-63
2021/06/30 23:24:05;;;;;;;8.10;6.28;;;;;;;17.88;84.96;99874.28;10357674;28;20415;-61
2021/06/30 23:29:07;;;;;;;6.10;5.60;;;;;;;17.83;84.20;99867.59;10344159;28;20053;-60
2021/06/30 23:34:09;;;;;;;6.20;5.57;;;;;;;17.91;85.63;99868.56;10356493;28;20364;-60
2021/06/30 23:39:11;;;;;;;6.95;5.63;;;;;;;17.89;83.59;99871.44;10350210;28;20053;-60
2021/06/30 23:44:12;;;;;;;5.15;4.70;;;;;;;17.77;84.35;99878.25;10366428;28;20503;-60